N308AP LFLL-LFPG
Flight info
| Callsign | N308AP |
|---|---|
| Flight time | N/A |
| Altitude | 10000 |
| Route | MOKIP DCT ARFOZ DCT TINIL |
| Aircraft | AEST/L-SDFGRY/S |
Departure
| Time | 2026-05-04 02:35 |
|---|---|
| Airport | Lyon Saint-Exupéry Airport (LFLL) |
Arrival
| Time | N/A |
|---|---|
| Airport | Charles de Gaulle International Airport (LFPG) |
| Time | Latitude | Longitude | Altitude | Speed | Heading |
|---|---|---|---|---|---|
| 2026-05-04 02:28 | 45.70907 | 5.08540 | 802 ft | 0 kts | 93° |
| 2026-05-04 02:31 | 45.70905 | 5.08595 | 802 ft | 12 kts | 72° |
| 2026-05-04 02:31 | 45.70935 | 5.08646 | 802 ft | 8 kts | 8° |
| 2026-05-04 02:32 | 45.71030 | 5.08650 | 801 ft | 16 kts | 360° |
| 2026-05-04 02:32 | 45.71127 | 5.08621 | 800 ft | 15 kts | 300° |
| 2026-05-04 02:32 | 45.71229 | 5.08548 | 798 ft | 20 kts | 356° |
| 2026-05-04 02:32 | 45.71373 | 5.08529 | 797 ft | 24 kts | 354° |
| 2026-05-04 02:33 | 45.71553 | 5.08509 | 794 ft | 26 kts | 355° |
| 2026-05-04 02:33 | 45.71730 | 5.08488 | 792 ft | 20 kts | 356° |
| 2026-05-04 02:33 | 45.71857 | 5.08472 | 791 ft | 16 kts | 354° |
| 2026-05-04 02:33 | 45.71939 | 5.08525 | 790 ft | 12 kts | 83° |
| 2026-05-04 02:34 | 45.71951 | 5.08682 | 791 ft | 20 kts | 83° |
| 2026-05-04 02:34 | 45.71960 | 5.08876 | 793 ft | 14 kts | 102° |
| 2026-05-04 02:34 | 45.71781 | 5.08944 | 795 ft | 62 kts | 175° |
| 2026-05-04 02:34 | 45.71208 | 5.09019 | 902 ft | 94 kts | 174° |
| 2026-05-04 02:35 | 45.70498 | 5.09119 | 1247 ft | 109 kts | 174° |
| 2026-05-04 02:35 | 45.69702 | 5.09266 | 1688 ft | 113 kts | 173° |
| 2026-05-04 02:35 | 45.68979 | 5.09433 | 2162 ft | 103 kts | 171° |
| 2026-05-04 02:35 | 45.68224 | 5.09629 | 2403 ft | 116 kts | 176° |
| 2026-05-04 02:36 | 45.67432 | 5.09726 | 2738 ft | 114 kts | 172° |
| 2026-05-04 02:36 | 45.66730 | 5.10346 | 2940 ft | 130 kts | 133° |
| 2026-05-04 02:36 | 45.66552 | 5.11671 | 3092 ft | 153 kts | 82° |
| 2026-05-04 02:36 | 45.67294 | 5.12857 | 3248 ft | 174 kts | 30° |
| 2026-05-04 02:37 | 45.68484 | 5.13250 | 3615 ft | 177 kts | 5° |
| 2026-05-04 02:37 | 45.69707 | 5.13373 | 4033 ft | 176 kts | 4° |
| 2026-05-04 02:37 | 45.70929 | 5.13557 | 4413 ft | 178 kts | 7° |
| 2026-05-04 02:37 | 45.72169 | 5.13824 | 4731 ft | 181 kts | 9° |
| 2026-05-04 02:38 | 45.73415 | 5.14146 | 5072 ft | 183 kts | 13° |
| 2026-05-04 02:38 | 45.74663 | 5.14520 | 5393 ft | 184 kts | 14° |
| 2026-05-04 02:38 | 45.75915 | 5.14927 | 5710 ft | 185 kts | 15° |
| 2026-05-04 02:38 | 45.77172 | 5.15346 | 6019 ft | 186 kts | 15° |
| 2026-05-04 02:39 | 45.78433 | 5.15769 | 6316 ft | 187 kts | 14° |
| 2026-05-04 02:39 | 45.79737 | 5.15877 | 6541 ft | 193 kts | 345° |
| 2026-05-04 02:39 | 45.80953 | 5.15121 | 6884 ft | 185 kts | 327° |
| 2026-05-04 02:39 | 45.82063 | 5.14278 | 7303 ft | 178 kts | 323° |
| 2026-05-04 02:40 | 45.83133 | 5.13401 | 7632 ft | 177 kts | 322° |
| 2026-05-04 02:40 | 45.84194 | 5.12505 | 7964 ft | 177 kts | 322° |
| 2026-05-04 02:40 | 45.85247 | 5.11625 | 8317 ft | 172 kts | 321° |
| 2026-05-04 02:40 | 45.86257 | 5.10771 | 8631 ft | 171 kts | 322° |
| 2026-05-04 02:41 | 45.87300 | 5.09917 | 8949 ft | 172 kts | 322° |
| 2026-05-04 02:41 | 45.88315 | 5.09052 | 9275 ft | 169 kts | 323° |
| 2026-05-04 02:41 | 45.89338 | 5.08203 | 9598 ft | 172 kts | 324° |
| 2026-05-04 02:41 | 45.90384 | 5.07359 | 9904 ft | 174 kts | 323° |
| 2026-05-04 02:42 | 45.91427 | 5.06487 | 10086 ft | 177 kts | 323° |
| 2026-05-04 02:42 | 45.92612 | 5.05843 | 10112 ft | 190 kts | 341° |
| 2026-05-04 02:42 | 45.93971 | 5.05526 | 10088 ft | 203 kts | 347° |
| 2026-05-04 02:42 | 45.95409 | 5.05257 | 10076 ft | 212 kts | 349° |
| 2026-05-04 02:43 | 45.96884 | 5.04988 | 10067 ft | 215 kts | 349° |
| 2026-05-04 02:43 | 45.98402 | 5.04731 | 10069 ft | 222 kts | 349° |
| 2026-05-04 02:43 | 45.99930 | 5.04468 | 10064 ft | 228 kts | 348° |
| 2026-05-04 02:43 | 46.01001 | 5.04275 | 10062 ft | 228 kts | 348° |
| 2026-05-04 02:44 | 46.02578 | 5.03983 | 10063 ft | 228 kts | 349° |
| 2026-05-04 02:44 | 46.04160 | 5.03694 | 10058 ft | 229 kts | 349° |
| 2026-05-04 02:44 | 46.05755 | 5.03411 | 10055 ft | 231 kts | 348° |
| 2026-05-04 02:44 | 46.07357 | 5.03134 | 10050 ft | 233 kts | 348° |
| 2026-05-04 02:45 | 46.08960 | 5.02840 | 10047 ft | 231 kts | 348° |
| 2026-05-04 02:45 | 46.10560 | 5.02540 | 10049 ft | 231 kts | 348° |
| 2026-05-04 02:45 | 46.12150 | 5.02238 | 10049 ft | 232 kts | 349° |
| 2026-05-04 02:45 | 46.14281 | 5.01867 | 10043 ft | 233 kts | 348° |
| 2026-05-04 02:46 | 46.15370 | 5.01669 | 10046 ft | 234 kts | 348° |
| 2026-05-04 02:46 | 46.16957 | 5.01369 | 10149 ft | 228 kts | 348° |
| 2026-05-04 02:46 | 46.18535 | 5.01071 | 10087 ft | 229 kts | 348° |
| 2026-05-04 02:46 | 46.20131 | 5.00781 | 10045 ft | 233 kts | 349° |
| 2026-05-04 02:47 | 46.21719 | 5.00497 | 10043 ft | 234 kts | 348° |
| 2026-05-04 02:47 | 46.23340 | 5.00207 | 10038 ft | 233 kts | 348° |
| 2026-05-04 02:47 | 46.24941 | 4.99899 | 10057 ft | 232 kts | 348° |
| 2026-05-04 02:47 | 46.26545 | 4.99604 | 10052 ft | 232 kts | 348° |
| 2026-05-04 02:48 | 46.28146 | 4.99312 | 10051 ft | 231 kts | 348° |
| 2026-05-04 02:48 | 46.29744 | 4.99016 | 10039 ft | 232 kts | 348° |
| 2026-05-04 02:48 | 46.31344 | 4.98750 | 10032 ft | 230 kts | 353° |
| 2026-05-04 02:48 | 46.32918 | 4.99110 | 10039 ft | 231 kts | 18° |
| 2026-05-04 02:49 | 46.34323 | 5.00239 | 10062 ft | 233 kts | 34° |
| 2026-05-04 02:49 | 46.35656 | 5.01601 | 10048 ft | 236 kts | 32° |
| 2026-05-04 02:49 | 46.37079 | 5.02786 | 10045 ft | 236 kts | 27° |
| 2026-05-04 02:49 | 46.38518 | 5.03928 | 10036 ft | 237 kts | 28° |
| 2026-05-04 02:50 | 46.39952 | 5.05119 | 10040 ft | 238 kts | 29° |
| 2026-05-04 02:50 | 46.41379 | 5.06336 | 10040 ft | 238 kts | 30° |
| 2026-05-04 02:50 | 46.42797 | 5.07563 | 10054 ft | 237 kts | 30° |
| 2026-05-04 02:50 | 46.44225 | 5.08776 | 10046 ft | 238 kts | 26° |
| 2026-05-04 02:51 | 46.45812 | 5.09400 | 10060 ft | 235 kts | 0° |
| 2026-05-04 02:51 | 46.47421 | 5.09238 | 10067 ft | 230 kts | 347° |
| 2026-05-04 02:51 | 46.49004 | 5.08977 | 10048 ft | 230 kts | 353° |
| 2026-05-04 02:51 | 46.50607 | 5.08988 | 10041 ft | 231 kts | 358° |
| 2026-05-04 02:52 | 46.52209 | 5.09105 | 10052 ft | 230 kts | 359° |
| 2026-05-04 02:52 | 46.53788 | 5.09230 | 10052 ft | 230 kts | 359° |
| 2026-05-04 02:52 | 46.55391 | 5.09322 | 10042 ft | 231 kts | 358° |
| 2026-05-04 02:52 | 46.57001 | 5.09383 | 10038 ft | 231 kts | 357° |
| 2026-05-04 02:53 | 46.58627 | 5.09419 | 10038 ft | 231 kts | 356° |
| 2026-05-04 02:53 | 46.60200 | 5.09441 | 10030 ft | 231 kts | 356° |
| 2026-05-04 02:53 | 46.61803 | 5.09455 | 10048 ft | 230 kts | 356° |
| 2026-05-04 02:53 | 46.63403 | 5.09467 | 10055 ft | 230 kts | 356° |
| 2026-05-04 02:54 | 46.65005 | 5.09475 | 10053 ft | 230 kts | 356° |
| 2026-05-04 02:54 | 46.66607 | 5.09481 | 10066 ft | 230 kts | 356° |
| 2026-05-04 02:54 | 46.68208 | 5.09483 | 10060 ft | 230 kts | 356° |
| 2026-05-04 02:54 | 46.69810 | 5.09488 | 10062 ft | 230 kts | 356° |
| 2026-05-04 02:55 | 46.73010 | 5.09500 | 10066 ft | 230 kts | 356° |
| 2026-05-04 02:55 | 46.74614 | 5.09503 | 10059 ft | 231 kts | 356° |
| 2026-05-04 02:55 | 46.76221 | 5.09510 | 10055 ft | 231 kts | 356° |
| 2026-05-04 02:56 | 46.77830 | 5.09522 | 10048 ft | 231 kts | 356° |
| 2026-05-04 02:56 | 46.79431 | 5.09529 | 10038 ft | 230 kts | 356° |
| 2026-05-04 02:56 | 46.81038 | 5.09535 | 10038 ft | 230 kts | 356° |
| 2026-05-04 02:56 | 46.82637 | 5.09542 | 10059 ft | 230 kts | 356° |
| 2026-05-04 02:57 | 46.84239 | 5.09549 | 10067 ft | 230 kts | 356° |
| 2026-05-04 02:57 | 46.85837 | 5.09556 | 10069 ft | 230 kts | 356° |
| 2026-05-04 02:57 | 46.87416 | 5.09562 | 10071 ft | 230 kts | 356° |
| 2026-05-04 02:57 | 46.89014 | 5.09570 | 10079 ft | 230 kts | 356° |
| 2026-05-04 02:58 | 46.90639 | 5.09583 | 10072 ft | 231 kts | 355° |
| 2026-05-04 02:58 | 46.92218 | 5.09594 | 10077 ft | 230 kts | 356° |
| 2026-05-04 02:58 | 46.93821 | 5.09610 | 10063 ft | 231 kts | 356° |
| 2026-05-04 02:58 | 46.95432 | 5.09614 | 10047 ft | 231 kts | 355° |
| 2026-05-04 02:59 | 46.97040 | 5.09615 | 10045 ft | 230 kts | 356° |
| 2026-05-04 02:59 | 46.98655 | 5.09627 | 10015 ft | 232 kts | 356° |
| 2026-05-04 02:59 | 47.00267 | 5.09636 | 10047 ft | 230 kts | 355° |
| 2026-05-04 02:59 | 47.01868 | 5.09638 | 10048 ft | 230 kts | 355° |
| 2026-05-04 03:00 | 47.03468 | 5.09634 | 10052 ft | 230 kts | 356° |
| 2026-05-04 03:00 | 47.05067 | 5.09635 | 10044 ft | 230 kts | 355° |
| 2026-05-04 03:00 | 47.06663 | 5.09646 | 10045 ft | 229 kts | 356° |
| 2026-05-04 03:00 | 47.08260 | 5.09656 | 10045 ft | 230 kts | 355° |
| 2026-05-04 03:01 | 47.09860 | 5.09660 | 10045 ft | 230 kts | 355° |
| 2026-05-04 03:01 | 47.11464 | 5.09665 | 10057 ft | 230 kts | 356° |
| 2026-05-04 03:01 | 47.13039 | 5.09675 | 10057 ft | 230 kts | 356° |
| 2026-05-04 03:01 | 47.14637 | 5.09683 | 10057 ft | 229 kts | 355° |
| 2026-05-04 03:02 | 47.16221 | 5.09689 | 9879 ft | 229 kts | 355° |
| 2026-05-04 03:02 | 47.17798 | 5.09408 | 9527 ft | 227 kts | 340° |
| 2026-05-04 03:02 | 47.19234 | 5.08572 | 9280 ft | 217 kts | 329° |
| 2026-05-04 03:02 | 47.20573 | 5.07579 | 8946 ft | 215 kts | 320° |
| 2026-05-04 03:03 | 47.21520 | 5.05963 | 8628 ft | 207 kts | 290° |
| 2026-05-04 03:03 | 47.21796 | 5.03961 | 8354 ft | 197 kts | 262° |
| 2026-05-04 03:03 | 47.21396 | 5.02175 | 8047 ft | 177 kts | 233° |
| 2026-05-04 03:03 | 47.20487 | 5.01032 | 7578 ft | 172 kts | 206° |
| 2026-05-04 03:04 | 47.19388 | 5.00404 | 7176 ft | 167 kts | 200° |
| 2026-05-04 03:04 | 47.18242 | 5.00284 | 6675 ft | 169 kts | 171° |
| 2026-05-04 03:04 | 47.17214 | 5.01136 | 6141 ft | 175 kts | 139° |
| 2026-05-04 03:04 | 47.16693 | 5.02702 | 5822 ft | 171 kts | 105° |
| 2026-05-04 03:05 | 47.16848 | 5.04421 | 5444 ft | 173 kts | 70° |
| 2026-05-04 03:05 | 47.17632 | 5.05730 | 5109 ft | 172 kts | 33° |
| 2026-05-04 03:05 | 47.18757 | 5.06263 | 4824 ft | 169 kts | 8° |
| 2026-05-04 03:05 | 47.19514 | 5.06435 | 4655 ft | 163 kts | 6° |